sensor_id;sensor_type;location;lat;lon;timestamp;temperature;humidity
947;DHT22;460;48.734;9.152;2023-04-28T00:01:16;11.30;85.90
947;DHT22;460;48.734;9.152;2023-04-28T00:03:42;11.30;86.00
947;DHT22;460;48.734;9.152;2023-04-28T00:06:09;11.30;86.60
947;DHT22;460;48.734;9.152;2023-04-28T00:08:36;11.40;87.50
947;DHT22;460;48.734;9.152;2023-04-28T00:11:04;11.40;86.60
947;DHT22;460;48.734;9.152;2023-04-28T00:13:35;11.40;86.30
947;DHT22;460;48.734;9.152;2023-04-28T00:16:02;11.40;86.80
947;DHT22;460;48.734;9.152;2023-04-28T00:18:29;11.40;86.20
947;DHT22;460;48.734;9.152;2023-04-28T00:20:57;11.40;86.70
947;DHT22;460;48.734;9.152;2023-04-28T00:23:24;11.40;86.90
947;DHT22;460;48.734;9.152;2023-04-28T00:25:51;11.40;87.70
947;DHT22;460;48.734;9.152;2023-04-28T00:28:18;11.30;87.50
947;DHT22;460;48.734;9.152;2023-04-28T00:30:46;11.20;87.90
947;DHT22;460;48.734;9.152;2023-04-28T00:33:13;11.30;88.00
947;DHT22;460;48.734;9.152;2023-04-28T00:35:40;11.30;88.40
947;DHT22;460;48.734;9.152;2023-04-28T00:38:07;11.40;88.40
947;DHT22;460;48.734;9.152;2023-04-28T00:40:34;11.40;87.50
947;DHT22;460;48.734;9.152;2023-04-28T00:43:01;11.30;87.80
947;DHT22;460;48.734;9.152;2023-04-28T00:45:28;11.30;88.90
947;DHT22;460;48.734;9.152;2023-04-28T00:47:56;11.30;89.00
947;DHT22;460;48.734;9.152;2023-04-28T00:50:24;11.30;89.30
947;DHT22;460;48.734;9.152;2023-04-28T00:52:52;11.30;90.00
947;DHT22;460;48.734;9.152;2023-04-28T00:55:18;11.30;89.90
947;DHT22;460;48.734;9.152;2023-04-28T00:57:46;11.30;90.40
947;DHT22;460;48.734;9.152;2023-04-28T01:00:14;11.20;90.10
947;DHT22;460;48.734;9.152;2023-04-28T01:02:41;11.30;90.10
947;DHT22;460;48.734;9.152;2023-04-28T01:05:10;11.30;90.10
947;DHT22;460;48.734;9.152;2023-04-28T01:07:37;11.30;90.00
947;DHT22;460;48.734;9.152;2023-04-28T01:10:04;11.30;90.00
947;DHT22;460;48.734;9.152;2023-04-28T01:12:31;11.30;90.10
947;DHT22;460;48.734;9.152;2023-04-28T01:14:58;11.30;90.50
947;DHT22;460;48.734;9.152;2023-04-28T01:17:26;11.30;91.10
947;DHT22;460;48.734;9.152;2023-04-28T01:19:52;11.20;91.00
947;DHT22;460;48.734;9.152;2023-04-28T01:22:21;11.20;91.00
947;DHT22;460;48.734;9.152;2023-04-28T01:24:49;11.30;90.80
947;DHT22;460;48.734;9.152;2023-04-28T01:27:16;11.30;90.80
947;DHT22;460;48.734;9.152;2023-04-28T01:29:43;11.30;90.80
947;DHT22;460;48.734;9.152;2023-04-28T01:32:10;11.30;90.90
947;DHT22;460;48.734;9.152;2023-04-28T01:34:37;11.30;91.00
947;DHT22;460;48.734;9.152;2023-04-28T01:37:03;11.30;91.50
947;DHT22;460;48.734;9.152;2023-04-28T01:39:30;11.30;91.10
947;DHT22;460;48.734;9.152;2023-04-28T01:41:58;11.30;90.70
947;DHT22;460;48.734;9.152;2023-04-28T01:44:26;11.40;90.70
947;DHT22;460;48.734;9.152;2023-04-28T01:46:53;11.40;91.40
947;DHT22;460;48.734;9.152;2023-04-28T01:49:20;11.30;91.70
947;DHT22;460;48.734;9.152;2023-04-28T01:51:47;11.30;91.60
947;DHT22;460;48.734;9.152;2023-04-28T01:54:14;11.40;91.20
947;DHT22;460;48.734;9.152;2023-04-28T01:57:18;11.40;90.90
947;DHT22;460;48.734;9.152;2023-04-28T01:59:45;11.40;90.80
947;DHT22;460;48.734;9.152;2023-04-28T02:02:11;11.30;91.00
947;DHT22;460;48.734;9.152;2023-04-28T02:04:38;11.20;91.00
947;DHT22;460;48.734;9.152;2023-04-28T02:07:05;11.20;91.50
947;DHT22;460;48.734;9.152;2023-04-28T02:09:32;11.20;91.30
947;DHT22;460;48.734;9.152;2023-04-28T02:11:59;11.30;91.70
947;DHT22;460;48.734;9.152;2023-04-28T02:14:28;11.40;91.50
947;DHT22;460;48.734;9.152;2023-04-28T02:16:57;11.30;91.30
947;DHT22;460;48.734;9.152;2023-04-28T02:19:25;11.30;91.40
947;DHT22;460;48.734;9.152;2023-04-28T02:21:52;11.30;91.30
947;DHT22;460;48.734;9.152;2023-04-28T02:24:20;11.40;90.80
947;DHT22;460;48.734;9.152;2023-04-28T02:26:47;11.30;90.50
947;DHT22;460;48.734;9.152;2023-04-28T02:29:14;11.30;90.70
947;DHT22;460;48.734;9.152;2023-04-28T02:31:43;11.40;90.60
947;DHT22;460;48.734;9.152;2023-04-28T02:34:11;11.30;90.60
947;DHT22;460;48.734;9.152;2023-04-28T02:36:38;11.40;90.70
947;DHT22;460;48.734;9.152;2023-04-28T02:39:05;11.30;90.40
947;DHT22;460;48.734;9.152;2023-04-28T02:41:32;11.40;90.90
947;DHT22;460;48.734;9.152;2023-04-28T02:43:59;11.40;90.50
947;DHT22;460;48.734;9.152;2023-04-28T02:46:26;11.40;90.90
947;DHT22;460;48.734;9.152;2023-04-28T02:48:54;11.50;90.90
947;DHT22;460;48.734;9.152;2023-04-28T02:51:21;11.40;90.60
947;DHT22;460;48.734;9.152;2023-04-28T02:53:48;11.40;90.60
947;DHT22;460;48.734;9.152;2023-04-28T02:56:15;11.40;90.60
947;DHT22;460;48.734;9.152;2023-04-28T02:58:42;11.40;91.00
947;DHT22;460;48.734;9.152;2023-04-28T03:01:09;11.30;91.50
947;DHT22;460;48.734;9.152;2023-04-28T03:03:36;11.30;92.60
947;DHT22;460;48.734;9.152;2023-04-28T03:06:06;11.30;95.00
947;DHT22;460;48.734;9.152;2023-04-28T03:08:34;11.30;94.70
947;DHT22;460;48.734;9.152;2023-04-28T03:11:00;11.40;95.20
947;DHT22;460;48.734;9.152;2023-04-28T03:13:27;11.40;96.30
947;DHT22;460;48.734;9.152;2023-04-28T03:15:55;11.50;95.80
947;DHT22;460;48.734;9.152;2023-04-28T03:18:22;11.50;96.70
947;DHT22;460;48.734;9.152;2023-04-28T03:20:49;11.40;96.40
947;DHT22;460;48.734;9.152;2023-04-28T03:23:18;11.40;97.30
947;DHT22;460;48.734;9.152;2023-04-28T03:25:45;11.40;97.20
947;DHT22;460;48.734;9.152;2023-04-28T03:28:12;11.40;97.00
947;DHT22;460;48.734;9.152;2023-04-28T03:30:40;11.50;97.00
947;DHT22;460;48.734;9.152;2023-04-28T03:33:07;11.50;97.30
947;DHT22;460;48.734;9.152;2023-04-28T03:35:34;11.50;98.00
947;DHT22;460;48.734;9.152;2023-04-28T03:38:01;11.40;98.40
947;DHT22;460;48.734;9.152;2023-04-28T03:40:30;11.40;98.80
947;DHT22;460;48.734;9.152;2023-04-28T03:42:57;11.40;98.00
947;DHT22;460;48.734;9.152;2023-04-28T03:45:24;11.40;98.10
947;DHT22;460;48.734;9.152;2023-04-28T03:47:51;11.40;98.20
947;DHT22;460;48.734;9.152;2023-04-28T03:50:18;11.40;98.20
947;DHT22;460;48.734;9.152;2023-04-28T03:52:44;11.40;98.50
947;DHT22;460;48.734;9.152;2023-04-28T03:55:11;11.40;98.90
947;DHT22;460;48.734;9.152;2023-04-28T03:57:40;11.40;99.10
947;DHT22;460;48.734;9.152;2023-04-28T04:00:07;11.40;99.10
947;DHT22;460;48.734;9.152;2023-04-28T04:02:34;11.40;98.80
947;DHT22;460;48.734;9.152;2023-04-28T04:05:01;11.40;98.80
947;DHT22;460;48.734;9.152;2023-04-28T04:07:28;11.40;98.80
947;DHT22;460;48.734;9.152;2023-04-28T04:09:55;11.40;98.50
947;DHT22;460;48.734;9.152;2023-04-28T04:12:21;11.40;98.30
947;DHT22;460;48.734;9.152;2023-04-28T04:14:49;11.40;97.70
947;DHT22;460;48.734;9.152;2023-04-28T04:17:17;11.40;97.30
947;DHT22;460;48.734;9.152;2023-04-28T04:19:43;11.50;97.30
947;DHT22;460;48.734;9.152;2023-04-28T04:22:10;11.50;96.60
947;DHT22;460;48.734;9.152;2023-04-28T04:24:37;11.50;96.50
947;DHT22;460;48.734;9.152;2023-04-28T04:27:04;11.50;96.30
947;DHT22;460;48.734;9.152;2023-04-28T04:29:31;11.50;96.30
947;DHT22;460;48.734;9.152;2023-04-28T04:31:59;11.60;96.00
947;DHT22;460;48.734;9.152;2023-04-28T04:34:26;11.50;96.10
947;DHT22;460;48.734;9.152;2023-04-28T04:36:52;11.60;95.90
947;DHT22;460;48.734;9.152;2023-04-28T04:39:19;11.60;96.40
947;DHT22;460;48.734;9.152;2023-04-28T04:41:46;11.60;96.80
947;DHT22;460;48.734;9.152;2023-04-28T04:44:13;11.60;97.00
947;DHT22;460;48.734;9.152;2023-04-28T04:46:40;11.60;96.70
947;DHT22;460;48.734;9.152;2023-04-28T04:49:08;11.60;97.10
947;DHT22;460;48.734;9.152;2023-04-28T04:51:34;11.60;97.60
947;DHT22;460;48.734;9.152;2023-04-28T04:54:01;11.70;97.50
947;DHT22;460;48.734;9.152;2023-04-28T04:56:28;11.70;97.70
947;DHT22;460;48.734;9.152;2023-04-28T04:58:56;11.70;98.30
947;DHT22;460;48.734;9.152;2023-04-28T05:01:23;11.70;99.10
947;DHT22;460;48.734;9.152;2023-04-28T05:03:49;11.70;99.60
947;DHT22;460;48.734;9.152;2023-04-28T05:06:18;11.70;99.90
947;DHT22;460;48.734;9.152;2023-04-28T05:08:45;11.70;99.90
947;DHT22;460;48.734;9.152;2023-04-28T05:11:11;11.60;99.90
947;DHT22;460;48.734;9.152;2023-04-28T05:13:38;11.50;99.90
947;DHT22;460;48.734;9.152;2023-04-28T05:16:05;11.50;99.90
947;DHT22;460;48.734;9.152;2023-04-28T05:18:32;11.50;99.90
947;DHT22;460;48.734;9.152;2023-04-28T05:20:59;11.50;99.90
947;DHT22;460;48.734;9.152;2023-04-28T05:23:28;11.50;99.90
947;DHT22;460;48.734;9.152;2023-04-28T05:25:55;11.50;99.90
947;DHT22;460;48.734;9.152;2023-04-28T05:28:22;11.50;99.90
947;DHT22;460;48.734;9.152;2023-04-28T05:30:48;11.60;99.90
947;DHT22;460;48.734;9.152;2023-04-28T05:33:15;11.60;99.90
947;DHT22;460;48.734;9.152;2023-04-28T05:35:42;11.60;99.90
947;DHT22;460;48.734;9.152;2023-04-28T05:38:09;11.70;99.90
947;DHT22;460;48.734;9.152;2023-04-28T05:40:37;11.70;99.90
947;DHT22;460;48.734;9.152;2023-04-28T05:43:04;11.60;99.90
947;DHT22;460;48.734;9.152;2023-04-28T05:45:30;11.60;99.90
947;DHT22;460;48.734;9.152;2023-04-28T05:47:57;11.60;99.90
947;DHT22;460;48.734;9.152;2023-04-28T05:50:24;11.60;99.90
947;DHT22;460;48.734;9.152;2023-04-28T05:52:52;11.70;99.90
947;DHT22;460;48.734;9.152;2023-04-28T05:55:19;11.70;99.90
947;DHT22;460;48.734;9.152;2023-04-28T05:57:47;11.70;99.90
947;DHT22;460;48.734;9.152;2023-04-28T06:00:38;11.60;99.90
947;DHT22;460;48.734;9.152;2023-04-28T06:03:24;11.60;99.90
947;DHT22;460;48.734;9.152;2023-04-28T06:09:57;11.70;99.90
947;DHT22;460;48.734;9.152;2023-04-28T06:12:50;11.70;99.90
947;DHT22;460;48.734;9.152;2023-04-28T06:15:36;11.80;99.90
947;DHT22;460;48.734;9.152;2023-04-28T06:18:24;11.70;99.90
947;DHT22;460;48.734;9.152;2023-04-28T06:35:13;11.90;99.90
947;DHT22;460;48.734;9.152;2023-04-28T06:37:40;11.90;99.90
947;DHT22;460;48.734;9.152;2023-04-28T06:40:07;11.90;99.90
947;DHT22;460;48.734;9.152;2023-04-28T06:42:34;11.90;99.90
947;DHT22;460;48.734;9.152;2023-04-28T06:45:03;11.90;99.90
947;DHT22;460;48.734;9.152;2023-04-28T06:47:30;11.90;99.90
947;DHT22;460;48.734;9.152;2023-04-28T06:49:57;12.00;99.90
947;DHT22;460;48.734;9.152;2023-04-28T06:52:25;12.00;99.90
947;DHT22;460;48.734;9.152;2023-04-28T06:54:54;12.00;99.90
947;DHT22;460;48.734;9.152;2023-04-28T06:57:20;12.00;99.90
947;DHT22;460;48.734;9.152;2023-04-28T06:59:47;12.00;99.90
947;DHT22;460;48.734;9.152;2023-04-28T07:02:14;12.10;99.90
947;DHT22;460;48.734;9.152;2023-04-28T07:04:41;12.10;99.90
947;DHT22;460;48.734;9.152;2023-04-28T07:07:08;12.10;99.90
947;DHT22;460;48.734;9.152;2023-04-28T07:09:36;12.00;99.90
947;DHT22;460;48.734;9.152;2023-04-28T07:12:03;12.10;99.90
947;DHT22;460;48.734;9.152;2023-04-28T07:14:30;12.10;99.90
947;DHT22;460;48.734;9.152;2023-04-28T07:16:58;12.20;99.90
947;DHT22;460;48.734;9.152;2023-04-28T07:19:25;12.30;99.90
947;DHT22;460;48.734;9.152;2023-04-28T07:21:52;12.30;99.90
947;DHT22;460;48.734;9.152;2023-04-28T07:24:19;12.30;99.90
947;DHT22;460;48.734;9.152;2023-04-28T07:26:49;12.40;99.90
947;DHT22;460;48.734;9.152;2023-04-28T07:29:16;12.40;99.90
947;DHT22;460;48.734;9.152;2023-04-28T07:31:43;12.40;99.90
947;DHT22;460;48.734;9.152;2023-04-28T07:34:10;12.40;99.90
947;DHT22;460;48.734;9.152;2023-04-28T07:36:37;12.40;99.90
947;DHT22;460;48.734;9.152;2023-04-28T07:39:04;12.40;99.90
947;DHT22;460;48.734;9.152;2023-04-28T07:41:35;12.50;99.90
947;DHT22;460;48.734;9.152;2023-04-28T07:44:04;12.50;99.90
947;DHT22;460;48.734;9.152;2023-04-28T07:46:32;12.50;99.90
947;DHT22;460;48.734;9.152;2023-04-28T07:48:59;12.60;99.90
947;DHT22;460;48.734;9.152;2023-04-28T07:51:26;12.60;99.90
947;DHT22;460;48.734;9.152;2023-04-28T07:53:53;12.60;99.90
947;DHT22;460;48.734;9.152;2023-04-28T07:56:20;12.50;99.90
947;DHT22;460;48.734;9.152;2023-04-28T07:58:47;12.60;99.90
947;DHT22;460;48.734;9.152;2023-04-28T08:01:15;12.50;99.90
947;DHT22;460;48.734;9.152;2023-04-28T08:03:42;12.50;99.90
947;DHT22;460;48.734;9.152;2023-04-28T08:06:09;12.50;99.90
947;DHT22;460;48.734;9.152;2023-04-28T08:08:36;12.40;99.90
947;DHT22;460;48.734;9.152;2023-04-28T08:11:03;12.40;99.90
947;DHT22;460;48.734;9.152;2023-04-28T08:13:30;12.40;99.90
947;DHT22;460;48.734;9.152;2023-04-28T08:15:56;12.40;99.90
947;DHT22;460;48.734;9.152;2023-04-28T08:18:26;12.40;99.90
947;DHT22;460;48.734;9.152;2023-04-28T08:20:53;12.40;99.90
947;DHT22;460;48.734;9.152;2023-04-28T08:23:20;12.40;99.90
947;DHT22;460;48.734;9.152;2023-04-28T08:25:48;12.40;99.90
947;DHT22;460;48.734;9.152;2023-04-28T08:28:15;12.40;99.90
947;DHT22;460;48.734;9.152;2023-04-28T08:30:42;12.40;99.90
947;DHT22;460;48.734;9.152;2023-04-28T08:33:09;12.40;99.90
947;DHT22;460;48.734;9.152;2023-04-28T08:35:37;12.40;99.90
947;DHT22;460;48.734;9.152;2023-04-28T08:38:05;12.50;99.90
947;DHT22;460;48.734;9.152;2023-04-28T08:40:38;12.60;99.90
947;DHT22;460;48.734;9.152;2023-04-28T08:43:05;12.60;99.90
947;DHT22;460;48.734;9.152;2023-04-28T08:45:41;12.60;99.90
947;DHT22;460;48.734;9.152;2023-04-28T08:48:16;12.60;99.90
947;DHT22;460;48.734;9.152;2023-04-28T08:50:49;12.60;99.90
947;DHT22;460;48.734;9.152;2023-04-28T08:53:22;12.70;99.90
947;DHT22;460;48.734;9.152;2023-04-28T08:55:51;12.70;99.90
947;DHT22;460;48.734;9.152;2023-04-28T08:58:21;12.80;99.90
947;DHT22;460;48.734;9.152;2023-04-28T09:00:48;12.80;99.90
947;DHT22;460;48.734;9.152;2023-04-28T09:03:15;12.80;99.90
947;DHT22;460;48.734;9.152;2023-04-28T09:05:41;12.90;99.90
947;DHT22;460;48.734;9.152;2023-04-28T09:08:10;12.90;99.90
947;DHT22;460;48.734;9.152;2023-04-28T09:10:37;12.90;99.90
947;DHT22;460;48.734;9.152;2023-04-28T09:13:04;12.90;99.90
947;DHT22;460;48.734;9.152;2023-04-28T09:15:32;12.90;99.90
947;DHT22;460;48.734;9.152;2023-04-28T09:17:59;12.90;99.90
947;DHT22;460;48.734;9.152;2023-04-28T09:20:28;13.00;99.90
947;DHT22;460;48.734;9.152;2023-04-28T09:22:56;13.00;99.90
947;DHT22;460;48.734;9.152;2023-04-28T09:25:38;13.00;99.90
947;DHT22;460;48.734;9.152;2023-04-28T09:28:18;13.10;99.90
947;DHT22;460;48.734;9.152;2023-04-28T09:30:46;13.10;99.90
947;DHT22;460;48.734;9.152;2023-04-28T09:33:13;13.20;99.90
947;DHT22;460;48.734;9.152;2023-04-28T09:35:41;13.20;99.90
947;DHT22;460;48.734;9.152;2023-04-28T09:38:08;13.30;99.90
947;DHT22;460;48.734;9.152;2023-04-28T09:40:54;13.40;99.90
947;DHT22;460;48.734;9.152;2023-04-28T09:43:26;13.50;99.90
947;DHT22;460;48.734;9.152;2023-04-28T09:45:53;13.50;99.90
947;DHT22;460;48.734;9.152;2023-04-28T09:48:28;13.60;99.90
947;DHT22;460;48.734;9.152;2023-04-28T09:50:55;13.70;99.90
947;DHT22;460;48.734;9.152;2023-04-28T09:53:24;13.90;99.90
947;DHT22;460;48.734;9.152;2023-04-28T09:55:51;14.00;99.90
947;DHT22;460;48.734;9.152;2023-04-28T09:58:21;14.00;99.90
947;DHT22;460;48.734;9.152;2023-04-28T10:00:51;14.10;99.90
947;DHT22;460;48.734;9.152;2023-04-28T10:03:20;14.40;99.90
947;DHT22;460;48.734;9.152;2023-04-28T10:05:49;14.50;99.90
947;DHT22;460;48.734;9.152;2023-04-28T10:08:18;14.50;99.90
947;DHT22;460;48.734;9.152;2023-04-28T10:10:45;14.50;99.90
947;DHT22;460;48.734;9.152;2023-04-28T10:13:14;14.60;99.90
947;DHT22;460;48.734;9.152;2023-04-28T10:15:43;14.70;99.90
947;DHT22;460;48.734;9.152;2023-04-28T10:18:11;14.80;99.90
947;DHT22;460;48.734;9.152;2023-04-28T10:20:39;14.90;99.90
947;DHT22;460;48.734;9.152;2023-04-28T10:23:23;14.90;99.90
947;DHT22;460;48.734;9.152;2023-04-28T10:25:54;15.00;99.90
947;DHT22;460;48.734;9.152;2023-04-28T10:28:23;15.00;99.90
947;DHT22;460;48.734;9.152;2023-04-28T10:31:10;15.00;99.90
947;DHT22;460;48.734;9.152;2023-04-28T10:33:37;15.00;99.90
947;DHT22;460;48.734;9.152;2023-04-28T10:36:05;15.10;99.90
947;DHT22;460;48.734;9.152;2023-04-28T10:38:33;15.10;99.90
947;DHT22;460;48.734;9.152;2023-04-28T10:41:01;15.10;99.90
947;DHT22;460;48.734;9.152;2023-04-28T10:43:35;15.10;99.90
947;DHT22;460;48.734;9.152;2023-04-28T10:46:14;15.10;99.90
947;DHT22;460;48.734;9.152;2023-04-28T10:48:54;15.10;99.90
947;DHT22;460;48.734;9.152;2023-04-28T10:51:31;15.20;99.90
947;DHT22;460;48.734;9.152;2023-04-28T10:54:25;15.20;99.90
947;DHT22;460;48.734;9.152;2023-04-28T10:57:15;15.40;99.90
947;DHT22;460;48.734;9.152;2023-04-28T10:59:43;15.60;99.90
947;DHT22;460;48.734;9.152;2023-04-28T11:05:16;15.70;99.90
947;DHT22;460;48.734;9.152;2023-04-28T11:11:23;15.60;99.90
947;DHT22;460;48.734;9.152;2023-04-28T11:13:50;15.70;99.90
947;DHT22;460;48.734;9.152;2023-04-28T11:16:21;15.80;99.90
947;DHT22;460;48.734;9.152;2023-04-28T11:18:59;15.80;99.90
947;DHT22;460;48.734;9.152;2023-04-28T11:21:31;15.80;99.90
947;DHT22;460;48.734;9.152;2023-04-28T11:23:58;15.80;99.90
947;DHT22;460;48.734;9.152;2023-04-28T11:26:27;15.70;99.90
947;DHT22;460;48.734;9.152;2023-04-28T11:28:55;15.70;99.90
947;DHT22;460;48.734;9.152;2023-04-28T11:31:24;15.80;99.90
947;DHT22;460;48.734;9.152;2023-04-28T11:33:55;15.80;99.90
947;DHT22;460;48.734;9.152;2023-04-28T11:36:32;15.90;99.90
947;DHT22;460;48.734;9.152;2023-04-28T11:39:00;16.00;99.90
947;DHT22;460;48.734;9.152;2023-04-28T11:41:29;16.10;99.90
947;DHT22;460;48.734;9.152;2023-04-28T11:43:56;16.30;99.90
947;DHT22;460;48.734;9.152;2023-04-28T11:46:24;16.50;99.90
947;DHT22;460;48.734;9.152;2023-04-28T11:48:59;16.60;99.90
947;DHT22;460;48.734;9.152;2023-04-28T11:51:32;16.60;99.90
947;DHT22;460;48.734;9.152;2023-04-28T11:54:00;16.60;99.90
947;DHT22;460;48.734;9.152;2023-04-28T11:56:28;16.60;99.90
947;DHT22;460;48.734;9.152;2023-04-28T11:59:06;16.60;99.90
947;DHT22;460;48.734;9.152;2023-04-28T12:01:34;16.70;99.90
947;DHT22;460;48.734;9.152;2023-04-28T12:04:09;16.70;99.90
947;DHT22;460;48.734;9.152;2023-04-28T12:06:38;16.70;99.90
947;DHT22;460;48.734;9.152;2023-04-28T12:09:15;16.60;99.90
947;DHT22;460;48.734;9.152;2023-04-28T12:11:55;16.60;99.90
947;DHT22;460;48.734;9.152;2023-04-28T12:14:22;16.60;99.90
947;DHT22;460;48.734;9.152;2023-04-28T12:16:50;16.60;99.90
947;DHT22;460;48.734;9.152;2023-04-28T12:19:17;16.70;99.90
947;DHT22;460;48.734;9.152;2023-04-28T12:21:58;16.80;99.90
947;DHT22;460;48.734;9.152;2023-04-28T12:24:25;17.00;99.90
947;DHT22;460;48.734;9.152;2023-04-28T12:26:52;17.10;99.90
947;DHT22;460;48.734;9.152;2023-04-28T12:29:35;17.20;99.90
947;DHT22;460;48.734;9.152;2023-04-28T12:32:06;17.30;99.90
947;DHT22;460;48.734;9.152;2023-04-28T12:34:34;17.40;99.90
947;DHT22;460;48.734;9.152;2023-04-28T12:37:03;17.50;99.90
947;DHT22;460;48.734;9.152;2023-04-28T12:39:30;17.50;99.90
947;DHT22;460;48.734;9.152;2023-04-28T12:41:57;17.50;99.90
947;DHT22;460;48.734;9.152;2023-04-28T12:44:24;17.40;99.90
947;DHT22;460;48.734;9.152;2023-04-28T12:46:52;17.40;99.90
947;DHT22;460;48.734;9.152;2023-04-28T12:49:20;17.30;99.90
947;DHT22;460;48.734;9.152;2023-04-28T12:51:47;17.20;99.90
947;DHT22;460;48.734;9.152;2023-04-28T12:54:15;17.10;99.90
947;DHT22;460;48.734;9.152;2023-04-28T12:56:42;17.00;99.90
947;DHT22;460;48.734;9.152;2023-04-28T12:59:09;17.00;99.90
947;DHT22;460;48.734;9.152;2023-04-28T13:01:36;17.10;99.90
947;DHT22;460;48.734;9.152;2023-04-28T13:04:03;17.00;99.90
947;DHT22;460;48.734;9.152;2023-04-28T13:06:31;17.00;99.90
947;DHT22;460;48.734;9.152;2023-04-28T13:08:58;16.80;99.90
947;DHT22;460;48.734;9.152;2023-04-28T13:11:26;16.80;99.90
947;DHT22;460;48.734;9.152;2023-04-28T13:13:53;16.70;99.90
947;DHT22;460;48.734;9.152;2023-04-28T13:16:21;16.60;99.90
947;DHT22;460;48.734;9.152;2023-04-28T13:18:53;16.80;99.90
947;DHT22;460;48.734;9.152;2023-04-28T13:21:21;16.90;99.90
947;DHT22;460;48.734;9.152;2023-04-28T13:23:48;17.10;99.90
947;DHT22;460;48.734;9.152;2023-04-28T13:26:15;17.40;99.90
947;DHT22;460;48.734;9.152;2023-04-28T13:28:45;17.80;99.90
947;DHT22;460;48.734;9.152;2023-04-28T13:31:12;18.10;99.90
947;DHT22;460;48.734;9.152;2023-04-28T13:33:39;18.10;99.90
947;DHT22;460;48.734;9.152;2023-04-28T13:36:06;18.10;99.90
947;DHT22;460;48.734;9.152;2023-04-28T13:38:34;18.10;99.90
947;DHT22;460;48.734;9.152;2023-04-28T13:41:00;18.00;99.90
947;DHT22;460;48.734;9.152;2023-04-28T13:43:27;18.00;99.90
947;DHT22;460;48.734;9.152;2023-04-28T13:45:55;17.80;99.90
947;DHT22;460;48.734;9.152;2023-04-28T13:48:23;17.70;99.60
947;DHT22;460;48.734;9.152;2023-04-28T13:50:50;17.50;99.30
947;DHT22;460;48.734;9.152;2023-04-28T13:53:17;17.30;99.30
947;DHT22;460;48.734;9.152;2023-04-28T13:55:44;17.20;99.30
947;DHT22;460;48.734;9.152;2023-04-28T13:58:11;17.20;99.90
947;DHT22;460;48.734;9.152;2023-04-28T14:00:37;17.10;99.90
947;DHT22;460;48.734;9.152;2023-04-28T14:03:06;17.00;99.90
947;DHT22;460;48.734;9.152;2023-04-28T14:05:33;16.90;99.90
947;DHT22;460;48.734;9.152;2023-04-28T14:08:01;16.70;99.90
947;DHT22;460;48.734;9.152;2023-04-28T14:10:28;16.70;99.90
947;DHT22;460;48.734;9.152;2023-04-28T14:12:55;16.70;99.90
947;DHT22;460;48.734;9.152;2023-04-28T14:15:22;16.80;99.90
947;DHT22;460;48.734;9.152;2023-04-28T14:17:48;16.70;99.90
947;DHT22;460;48.734;9.152;2023-04-28T14:20:17;16.70;99.90
947;DHT22;460;48.734;9.152;2023-04-28T14:22:44;16.70;99.90
947;DHT22;460;48.734;9.152;2023-04-28T14:25:10;16.70;99.90
947;DHT22;460;48.734;9.152;2023-04-28T14:27:37;16.50;99.90
947;DHT22;460;48.734;9.152;2023-04-28T14:30:05;16.50;99.90
947;DHT22;460;48.734;9.152;2023-04-28T14:32:33;16.50;99.90
947;DHT22;460;48.734;9.152;2023-04-28T14:35:00;16.60;99.90
947;DHT22;460;48.734;9.152;2023-04-28T14:37:31;16.70;99.90
947;DHT22;460;48.734;9.152;2023-04-28T14:39:58;16.60;99.90
947;DHT22;460;48.734;9.152;2023-04-28T14:42:27;16.70;99.90
947;DHT22;460;48.734;9.152;2023-04-28T14:44:55;16.80;99.90
947;DHT22;460;48.734;9.152;2023-04-28T14:47:22;16.40;99.90
947;DHT22;460;48.734;9.152;2023-04-28T14:49:49;16.30;99.90
947;DHT22;460;48.734;9.152;2023-04-28T14:52:18;16.20;99.90
947;DHT22;460;48.734;9.152;2023-04-28T14:54:46;16.20;99.90
947;DHT22;460;48.734;9.152;2023-04-28T14:57:12;16.10;99.90
947;DHT22;460;48.734;9.152;2023-04-28T14:59:39;16.10;99.90
947;DHT22;460;48.734;9.152;2023-04-28T15:02:07;16.10;99.90
947;DHT22;460;48.734;9.152;2023-04-28T15:04:35;16.20;99.90
947;DHT22;460;48.734;9.152;2023-04-28T15:07:01;16.10;99.90
947;DHT22;460;48.734;9.152;2023-04-28T15:09:28;15.90;99.90
947;DHT22;460;48.734;9.152;2023-04-28T15:11:57;15.80;99.90
947;DHT22;460;48.734;9.152;2023-04-28T15:14:23;15.80;99.90
947;DHT22;460;48.734;9.152;2023-04-28T15:16:51;15.70;99.90
947;DHT22;460;48.734;9.152;2023-04-28T15:19:17;15.70;99.90
947;DHT22;460;48.734;9.152;2023-04-28T15:21:45;15.80;99.90
947;DHT22;460;48.734;9.152;2023-04-28T15:24:12;15.70;99.90
947;DHT22;460;48.734;9.152;2023-04-28T15:26:41;15.70;99.90
947;DHT22;460;48.734;9.152;2023-04-28T15:29:09;15.60;99.90
947;DHT22;460;48.734;9.152;2023-04-28T15:31:36;15.70;99.90
947;DHT22;460;48.734;9.152;2023-04-28T15:34:04;15.50;99.90
947;DHT22;460;48.734;9.152;2023-04-28T15:36:35;15.50;99.90
947;DHT22;460;48.734;9.152;2023-04-28T15:39:03;15.40;99.90
947;DHT22;460;48.734;9.152;2023-04-28T15:41:30;15.40;99.90
947;DHT22;460;48.734;9.152;2023-04-28T15:43:57;15.30;99.90
947;DHT22;460;48.734;9.152;2023-04-28T15:46:26;15.20;99.90
947;DHT22;460;48.734;9.152;2023-04-28T15:48:53;15.20;99.90
947;DHT22;460;48.734;9.152;2023-04-28T15:51:20;15.30;99.90
947;DHT22;460;48.734;9.152;2023-04-28T15:53:47;15.30;99.90
947;DHT22;460;48.734;9.152;2023-04-28T15:56:15;15.30;99.90
947;DHT22;460;48.734;9.152;2023-04-28T15:58:42;15.40;99.90
947;DHT22;460;48.734;9.152;2023-04-28T16:01:09;15.30;99.90
947;DHT22;460;48.734;9.152;2023-04-28T16:03:37;15.30;99.90
947;DHT22;460;48.734;9.152;2023-04-28T16:06:04;15.30;99.90
947;DHT22;460;48.734;9.152;2023-04-28T16:08:32;15.20;99.90
947;DHT22;460;48.734;9.152;2023-04-28T16:10:59;15.30;99.90
947;DHT22;460;48.734;9.152;2023-04-28T16:13:26;15.20;99.90
947;DHT22;460;48.734;9.152;2023-04-28T16:15:57;15.10;99.90
947;DHT22;460;48.734;9.152;2023-04-28T16:18:24;15.10;99.90
947;DHT22;460;48.734;9.152;2023-04-28T16:20:52;15.00;99.90
947;DHT22;460;48.734;9.152;2023-04-28T16:23:19;15.00;99.90
947;DHT22;460;48.734;9.152;2023-04-28T16:25:46;14.90;99.90
947;DHT22;460;48.734;9.152;2023-04-28T16:28:15;14.90;99.90
947;DHT22;460;48.734;9.152;2023-04-28T16:30:42;14.90;99.90
947;DHT22;460;48.734;9.152;2023-04-28T16:33:09;14.80;99.90
947;DHT22;460;48.734;9.152;2023-04-28T16:35:36;14.80;99.90
947;DHT22;460;48.734;9.152;2023-04-28T16:38:04;14.90;99.90
947;DHT22;460;48.734;9.152;2023-04-28T16:40:31;15.00;99.90
947;DHT22;460;48.734;9.152;2023-04-28T16:42:57;15.10;99.90
947;DHT22;460;48.734;9.152;2023-04-28T16:45:24;15.20;99.90
947;DHT22;460;48.734;9.152;2023-04-28T16:47:51;15.00;99.90
947;DHT22;460;48.734;9.152;2023-04-28T16:50:18;15.10;99.90
947;DHT22;460;48.734;9.152;2023-04-28T16:52:45;15.00;99.90
947;DHT22;460;48.734;9.152;2023-04-28T16:55:14;15.00;99.90
947;DHT22;460;48.734;9.152;2023-04-28T16:57:41;15.00;99.90
947;DHT22;460;48.734;9.152;2023-04-28T17:00:08;15.10;99.90
947;DHT22;460;48.734;9.152;2023-04-28T17:02:35;15.10;99.90
947;DHT22;460;48.734;9.152;2023-04-28T17:05:03;15.10;99.90
947;DHT22;460;48.734;9.152;2023-04-28T17:07:29;15.10;99.90